sensor_id;sensor_type;location;lat;lon;timestamp;P1;durP1;ratioP1;P2;durP2;ratioP2
8572;SDS011;4324;42.012;24.872;2023-04-25T00:01:39;6.90;;;6.40;;
8572;SDS011;4324;42.012;24.872;2023-04-25T00:04:08;7.20;;;6.43;;
8572;SDS011;4324;42.012;24.872;2023-04-25T00:06:36;7.33;;;6.63;;
8572;SDS011;4324;42.012;24.872;2023-04-25T00:09:04;6.73;;;6.17;;
8572;SDS011;4324;42.012;24.872;2023-04-25T00:11:34;6.70;;;6.10;;
8572;SDS011;4324;42.012;24.872;2023-04-25T00:14:02;7.33;;;6.63;;
8572;SDS011;4324;42.012;24.872;2023-04-25T00:16:29;6.33;;;5.73;;
8572;SDS011;4324;42.012;24.872;2023-04-25T00:18:58;6.20;;;5.70;;
8572;SDS011;4324;42.012;24.872;2023-04-25T00:21:28;5.60;;;5.10;;
8572;SDS011;4324;42.012;24.872;2023-04-25T00:23:56;5.40;;;4.90;;
8572;SDS011;4324;42.012;24.872;2023-04-25T00:26:23;6.00;;;5.50;;
8572;SDS011;4324;42.012;24.872;2023-04-25T00:28:50;5.23;;;4.83;;
8572;SDS011;4324;42.012;24.872;2023-04-25T00:31:17;4.47;;;4.17;;
8572;SDS011;4324;42.012;24.872;2023-04-25T00:33:44;4.53;;;4.13;;
8572;SDS011;4324;42.012;24.872;2023-04-25T00:36:11;4.90;;;4.50;;
8572;SDS011;4324;42.012;24.872;2023-04-25T00:38:40;5.00;;;4.60;;
8572;SDS011;4324;42.012;24.872;2023-04-25T00:41:07;4.60;;;4.20;;
8572;SDS011;4324;42.012;24.872;2023-04-25T00:43:34;3.80;;;3.50;;
8572;SDS011;4324;42.012;24.872;2023-04-25T00:46:03;3.70;;;3.40;;
8572;SDS011;4324;42.012;24.872;2023-04-25T00:48:30;2.90;;;2.70;;
8572;SDS011;4324;42.012;24.872;2023-04-25T00:50:57;2.80;;;2.60;;
8572;SDS011;4324;42.012;24.872;2023-04-25T00:53:25;3.70;;;3.40;;
8572;SDS011;4324;42.012;24.872;2023-04-25T00:55:55;4.77;;;4.37;;
8572;SDS011;4324;42.012;24.872;2023-04-25T00:58:22;4.33;;;3.93;;
8572;SDS011;4324;42.012;24.872;2023-04-25T01:00:50;4.90;;;4.50;;
8572;SDS011;4324;42.012;24.872;2023-04-25T01:03:18;4.77;;;4.37;;
8572;SDS011;4324;42.012;24.872;2023-04-25T01:05:46;5.50;;;5.00;;
8572;SDS011;4324;42.012;24.872;2023-04-25T01:08:13;5.30;;;4.80;;
8572;SDS011;4324;42.012;24.872;2023-04-25T01:10:40;6.33;;;5.73;;
8572;SDS011;4324;42.012;24.872;2023-04-25T01:13:08;6.60;;;6.07;;
8572;SDS011;4324;42.012;24.872;2023-04-25T01:15:35;6.40;;;5.73;;
8572;SDS011;4324;42.012;24.872;2023-04-25T01:18:03;8.90;;;7.87;;
8572;SDS011;4324;42.012;24.872;2023-04-25T01:20:30;11.87;;;10.70;;
8572;SDS011;4324;42.012;24.872;2023-04-25T01:23:00;13.53;;;12.13;;
8572;SDS011;4324;42.012;24.872;2023-04-25T01:25:28;15.97;;;14.27;;
8572;SDS011;4324;42.012;24.872;2023-04-25T01:27:55;18.67;;;15.40;;
8572;SDS011;4324;42.012;24.872;2023-04-25T01:30:23;18.30;;;16.23;;
8572;SDS011;4324;42.012;24.872;2023-04-25T01:32:51;18.93;;;17.03;;
8572;SDS011;4324;42.012;24.872;2023-04-25T01:35:20;18.90;;;16.87;;
8572;SDS011;4324;42.012;24.872;2023-04-25T01:37:49;22.33;;;18.63;;
8572;SDS011;4324;42.012;24.872;2023-04-25T01:40:18;20.57;;;17.33;;
8572;SDS011;4324;42.012;24.872;2023-04-25T01:42:47;23.00;;;20.47;;
8572;SDS011;4324;42.012;24.872;2023-04-25T01:45:15;23.47;;;20.80;;
8572;SDS011;4324;42.012;24.872;2023-04-25T01:47:42;21.17;;;18.80;;
8572;SDS011;4324;42.012;24.872;2023-04-25T01:50:14;20.30;;;17.43;;
8572;SDS011;4324;42.012;24.872;2023-04-25T01:52:42;19.57;;;17.27;;
8572;SDS011;4324;42.012;24.872;2023-04-25T01:55:09;22.77;;;17.67;;
8572;SDS011;4324;42.012;24.872;2023-04-25T01:57:38;20.50;;;18.17;;
8572;SDS011;4324;42.012;24.872;2023-04-25T02:00:05;20.77;;;16.93;;
8572;SDS011;4324;42.012;24.872;2023-04-25T02:02:34;20.73;;;18.40;;
8572;SDS011;4324;42.012;24.872;2023-04-25T02:05:01;21.43;;;19.33;;
8572;SDS011;4324;42.012;24.872;2023-04-25T02:07:28;20.90;;;18.70;;
8572;SDS011;4324;42.012;24.872;2023-04-25T02:09:54;24.37;;;20.20;;
8572;SDS011;4324;42.012;24.872;2023-04-25T02:12:21;23.07;;;20.60;;
8572;SDS011;4324;42.012;24.872;2023-04-25T02:14:50;20.67;;;18.57;;
8572;SDS011;4324;42.012;24.872;2023-04-25T02:17:17;23.20;;;19.73;;
8572;SDS011;4324;42.012;24.872;2023-04-25T02:19:43;23.23;;;20.60;;
8572;SDS011;4324;42.012;24.872;2023-04-25T02:22:11;23.17;;;19.33;;
8572;SDS011;4324;42.012;24.872;2023-04-25T02:24:38;21.23;;;18.93;;
8572;SDS011;4324;42.012;24.872;2023-04-25T02:27:05;23.80;;;21.17;;
8572;SDS011;4324;42.012;24.872;2023-04-25T02:29:32;20.20;;;18.00;;
8572;SDS011;4324;42.012;24.872;2023-04-25T02:32:01;20.47;;;18.27;;
8572;SDS011;4324;42.012;24.872;2023-04-25T02:34:28;19.43;;;17.43;;
8572;SDS011;4324;42.012;24.872;2023-04-25T02:36:54;21.00;;;18.53;;
8572;SDS011;4324;42.012;24.872;2023-04-25T02:39:21;22.90;;;20.03;;
8572;SDS011;4324;42.012;24.872;2023-04-25T02:41:50;23.57;;;19.83;;
8572;SDS011;4324;42.012;24.872;2023-04-25T02:44:17;23.53;;;19.90;;
8572;SDS011;4324;42.012;24.872;2023-04-25T02:46:43;26.17;;;21.20;;
8572;SDS011;4324;42.012;24.872;2023-04-25T02:49:12;27.30;;;21.27;;
8572;SDS011;4324;42.012;24.872;2023-04-25T02:51:38;25.37;;;21.10;;
8572;SDS011;4324;42.012;24.872;2023-04-25T02:54:05;27.07;;;21.50;;
8572;SDS011;4324;42.012;24.872;2023-04-25T02:56:32;24.63;;;19.50;;
8572;SDS011;4324;42.012;24.872;2023-04-25T02:58:59;21.83;;;18.03;;
8572;SDS011;4324;42.012;24.872;2023-04-25T03:01:26;22.07;;;18.77;;
8572;SDS011;4324;42.012;24.872;2023-04-25T03:03:53;20.00;;;17.53;;
8572;SDS011;4324;42.012;24.872;2023-04-25T03:06:21;21.47;;;18.60;;
8572;SDS011;4324;42.012;24.872;2023-04-25T03:08:48;17.50;;;15.03;;
8572;SDS011;4324;42.012;24.872;2023-04-25T03:11:15;16.97;;;14.27;;
8572;SDS011;4324;42.012;24.872;2023-04-25T03:13:42;14.27;;;12.03;;
8572;SDS011;4324;42.012;24.872;2023-04-25T03:16:09;16.20;;;12.50;;
8572;SDS011;4324;42.012;24.872;2023-04-25T03:18:36;16.17;;;13.73;;
8572;SDS011;4324;42.012;24.872;2023-04-25T03:21:02;17.90;;;14.33;;
8572;SDS011;4324;42.012;24.872;2023-04-25T03:23:31;19.00;;;15.27;;
8572;SDS011;4324;42.012;24.872;2023-04-25T03:25:57;18.13;;;14.97;;
8572;SDS011;4324;42.012;24.872;2023-04-25T03:28:24;16.13;;;14.40;;
8572;SDS011;4324;42.012;24.872;2023-04-25T03:30:51;19.13;;;15.60;;
8572;SDS011;4324;42.012;24.872;2023-04-25T03:33:19;19.67;;;15.50;;
8572;SDS011;4324;42.012;24.872;2023-04-25T03:35:46;18.80;;;15.33;;
8572;SDS011;4324;42.012;24.872;2023-04-25T03:38:12;17.30;;;14.60;;
8572;SDS011;4324;42.012;24.872;2023-04-25T03:40:41;18.27;;;14.93;;
8572;SDS011;4324;42.012;24.872;2023-04-25T03:43:07;14.00;;;11.50;;
8572;SDS011;4324;42.012;24.872;2023-04-25T03:45:34;9.20;;;8.20;;
8572;SDS011;4324;42.012;24.872;2023-04-25T03:48:01;7.30;;;5.70;;
8572;SDS011;4324;42.012;24.872;2023-04-25T03:50:28;6.43;;;5.83;;
8572;SDS011;4324;42.012;24.872;2023-04-25T03:52:55;5.80;;;5.30;;
8572;SDS011;4324;42.012;24.872;2023-04-25T03:55:22;7.40;;;4.80;;
8572;SDS011;4324;42.012;24.872;2023-04-25T03:57:50;4.93;;;4.17;;
8572;SDS011;4324;42.012;24.872;2023-04-25T04:00:17;6.33;;;5.30;;
8572;SDS011;4324;42.012;24.872;2023-04-25T04:02:44;8.07;;;6.60;;
8572;SDS011;4324;42.012;24.872;2023-04-25T04:05:11;9.93;;;9.00;;
8572;SDS011;4324;42.012;24.872;2023-04-25T04:07:38;6.17;;;5.53;;
8572;SDS011;4324;42.012;24.872;2023-04-25T04:10:08;6.93;;;5.10;;
8572;SDS011;4324;42.012;24.872;2023-04-25T04:12:35;4.50;;;3.37;;
8572;SDS011;4324;42.012;24.872;2023-04-25T04:15:04;6.17;;;3.73;;
8572;SDS011;4324;42.012;24.872;2023-04-25T04:17:32;3.77;;;3.37;;
8572;SDS011;4324;42.012;24.872;2023-04-25T04:19:59;4.80;;;3.23;;
8572;SDS011;4324;42.012;24.872;2023-04-25T04:22:26;4.10;;;3.07;;
8572;SDS011;4324;42.012;24.872;2023-04-25T04:24:53;4.77;;;3.53;;
8572;SDS011;4324;42.012;24.872;2023-04-25T04:27:19;3.40;;;3.10;;
8572;SDS011;4324;42.012;24.872;2023-04-25T04:29:47;3.97;;;2.47;;
8572;SDS011;4324;42.012;24.872;2023-04-25T04:32:16;4.83;;;3.10;;
8572;SDS011;4324;42.012;24.872;2023-04-25T04:34:43;5.63;;;3.47;;
8572;SDS011;4324;42.012;24.872;2023-04-25T04:37:12;6.53;;;4.20;;
8572;SDS011;4324;42.012;24.872;2023-04-25T04:39:39;9.97;;;4.20;;
8572;SDS011;4324;42.012;24.872;2023-04-25T04:42:06;6.27;;;4.00;;
8572;SDS011;4324;42.012;24.872;2023-04-25T04:44:33;6.10;;;4.50;;
8572;SDS011;4324;42.012;24.872;2023-04-25T04:47:00;6.87;;;4.20;;
8572;SDS011;4324;42.012;24.872;2023-04-25T04:49:30;5.77;;;3.80;;
8572;SDS011;4324;42.012;24.872;2023-04-25T04:51:57;8.30;;;4.20;;
8572;SDS011;4324;42.012;24.872;2023-04-25T04:54:25;7.97;;;4.30;;
8572;SDS011;4324;42.012;24.872;2023-04-25T04:56:52;9.33;;;5.90;;
8572;SDS011;4324;42.012;24.872;2023-04-25T04:59:19;6.50;;;4.70;;
8572;SDS011;4324;42.012;24.872;2023-04-25T05:01:46;16.07;;;10.57;;
8572;SDS011;4324;42.012;24.872;2023-04-25T05:04:13;20.73;;;10.83;;
8572;SDS011;4324;42.012;24.872;2023-04-25T05:06:41;11.00;;;5.50;;
8572;SDS011;4324;42.012;24.872;2023-04-25T05:09:09;7.17;;;5.23;;
8572;SDS011;4324;42.012;24.872;2023-04-25T05:11:36;8.37;;;4.80;;
8572;SDS011;4324;42.012;24.872;2023-04-25T05:14:03;8.40;;;5.10;;
8572;SDS011;4324;42.012;24.872;2023-04-25T05:16:29;8.27;;;5.43;;
8572;SDS011;4324;42.012;24.872;2023-04-25T05:18:56;6.93;;;3.33;;
8572;SDS011;4324;42.012;24.872;2023-04-25T05:21:23;7.90;;;6.73;;
8572;SDS011;4324;42.012;24.872;2023-04-25T05:23:51;12.00;;;9.10;;
8572;SDS011;4324;42.012;24.872;2023-04-25T05:26:18;9.23;;;8.00;;
8572;SDS011;4324;42.012;24.872;2023-04-25T05:28:45;12.40;;;9.43;;
8572;SDS011;4324;42.012;24.872;2023-04-25T05:31:12;4.70;;;3.50;;
8572;SDS011;4324;42.012;24.872;2023-04-25T05:33:39;9.67;;;4.67;;
8572;SDS011;4324;42.012;24.872;2023-04-25T05:36:06;4.37;;;3.60;;
8572;SDS011;4324;42.012;24.872;2023-04-25T05:38:34;3.90;;;3.50;;
8572;SDS011;4324;42.012;24.872;2023-04-25T05:41:02;5.63;;;3.60;;
8572;SDS011;4324;42.012;24.872;2023-04-25T05:43:29;6.33;;;4.63;;
8572;SDS011;4324;42.012;24.872;2023-04-25T05:45:55;4.80;;;3.90;;
8572;SDS011;4324;42.012;24.872;2023-04-25T05:48:22;5.20;;;4.63;;
8572;SDS011;4324;42.012;24.872;2023-04-25T05:50:49;7.47;;;5.17;;
8572;SDS011;4324;42.012;24.872;2023-04-25T05:53:16;6.03;;;5.47;;
8572;SDS011;4324;42.012;24.872;2023-04-25T05:55:43;7.37;;;6.20;;
8572;SDS011;4324;42.012;24.872;2023-04-25T05:58:11;7.40;;;6.40;;
8572;SDS011;4324;42.012;24.872;2023-04-25T06:00:38;6.87;;;6.37;;
8572;SDS011;4324;42.012;24.872;2023-04-25T06:03:06;8.00;;;6.40;;
8572;SDS011;4324;42.012;24.872;2023-04-25T06:05:34;7.37;;;6.67;;
8572;SDS011;4324;42.012;24.872;2023-04-25T06:08:01;6.80;;;6.20;;
8572;SDS011;4324;42.012;24.872;2023-04-25T06:10:28;8.70;;;7.80;;
8572;SDS011;4324;42.012;24.872;2023-04-25T06:12:55;9.47;;;8.70;;
8572;SDS011;4324;42.012;24.872;2023-04-25T06:15:23;5.90;;;5.40;;
8572;SDS011;4324;42.012;24.872;2023-04-25T06:17:50;9.50;;;8.40;;
8572;SDS011;4324;42.012;24.872;2023-04-25T06:20:17;10.37;;;9.27;;
8572;SDS011;4324;42.012;24.872;2023-04-25T06:22:48;11.43;;;9.97;;
8572;SDS011;4324;42.012;24.872;2023-04-25T06:25:15;11.53;;;10.07;;
8572;SDS011;4324;42.012;24.872;2023-04-25T06:27:42;11.20;;;10.10;;
8572;SDS011;4324;42.012;24.872;2023-04-25T06:30:09;13.30;;;9.97;;
8572;SDS011;4324;42.012;24.872;2023-04-25T06:32:38;17.20;;;11.70;;
8572;SDS011;4324;42.012;24.872;2023-04-25T06:35:06;12.30;;;11.20;;
8572;SDS011;4324;42.012;24.872;2023-04-25T06:37:33;11.23;;;9.87;;
8572;SDS011;4324;42.012;24.872;2023-04-25T06:40:00;11.33;;;10.23;;
8572;SDS011;4324;42.012;24.872;2023-04-25T06:42:27;11.27;;;10.17;;
8572;SDS011;4324;42.012;24.872;2023-04-25T06:44:54;13.60;;;12.20;;
8572;SDS011;4324;42.012;24.872;2023-04-25T06:47:22;12.93;;;10.20;;
8572;SDS011;4324;42.012;24.872;2023-04-25T06:49:50;10.00;;;8.90;;
8572;SDS011;4324;42.012;24.872;2023-04-25T06:52:17;15.63;;;14.07;;
8572;SDS011;4324;42.012;24.872;2023-04-25T06:54:44;13.27;;;11.97;;
8572;SDS011;4324;42.012;24.872;2023-04-25T06:57:11;11.07;;;10.10;;
8572;SDS011;4324;42.012;24.872;2023-04-25T06:59:38;14.67;;;13.17;;
8572;SDS011;4324;42.012;24.872;2023-04-25T07:02:07;10.97;;;10.07;;
8572;SDS011;4324;42.012;24.872;2023-04-25T07:04:35;10.30;;;9.30;;
8572;SDS011;4324;42.012;24.872;2023-04-25T07:07:03;11.50;;;10.40;;
8572;SDS011;4324;42.012;24.872;2023-04-25T07:09:30;13.57;;;12.27;;
8572;SDS011;4324;42.012;24.872;2023-04-25T07:11:58;14.30;;;13.00;;
8572;SDS011;4324;42.012;24.872;2023-04-25T07:14:26;11.20;;;10.20;;
8572;SDS011;4324;42.012;24.872;2023-04-25T07:16:53;10.40;;;9.30;;
8572;SDS011;4324;42.012;24.872;2023-04-25T07:19:21;6.70;;;5.97;;
8572;SDS011;4324;42.012;24.872;2023-04-25T07:21:49;6.00;;;5.50;;
8572;SDS011;4324;42.012;24.872;2023-04-25T07:24:17;7.30;;;6.60;;
8572;SDS011;4324;42.012;24.872;2023-04-25T07:26:44;8.37;;;7.53;;
8572;SDS011;4324;42.012;24.872;2023-04-25T07:29:11;7.00;;;6.50;;
8572;SDS011;4324;42.012;24.872;2023-04-25T07:31:37;7.00;;;6.40;;
8572;SDS011;4324;42.012;24.872;2023-04-25T07:34:04;8.60;;;7.70;;
8572;SDS011;4324;42.012;24.872;2023-04-25T07:36:31;7.30;;;6.60;;
8572;SDS011;4324;42.012;24.872;2023-04-25T07:38:58;8.37;;;6.50;;
8572;SDS011;4324;42.012;24.872;2023-04-25T07:41:26;15.20;;;13.50;;
8572;SDS011;4324;42.012;24.872;2023-04-25T07:43:53;7.33;;;6.63;;
8572;SDS011;4324;42.012;24.872;2023-04-25T07:46:20;5.67;;;5.10;;
8572;SDS011;4324;42.012;24.872;2023-04-25T07:48:47;7.43;;;6.73;;
8572;SDS011;4324;42.012;24.872;2023-04-25T07:51:13;6.67;;;6.13;;
8572;SDS011;4324;42.012;24.872;2023-04-25T07:53:40;8.53;;;7.83;;
8572;SDS011;4324;42.012;24.872;2023-04-25T07:56:07;8.07;;;7.30;;
8572;SDS011;4324;42.012;24.872;2023-04-25T07:58:35;6.73;;;6.23;;
8572;SDS011;4324;42.012;24.872;2023-04-25T08:01:04;6.93;;;6.30;;
8572;SDS011;4324;42.012;24.872;2023-04-25T08:03:31;9.70;;;8.73;;
8572;SDS011;4324;42.012;24.872;2023-04-25T08:05:58;12.63;;;11.47;;
8572;SDS011;4324;42.012;24.872;2023-04-25T08:08:25;7.83;;;7.13;;
8572;SDS011;4324;42.012;24.872;2023-04-25T08:10:52;10.13;;;9.23;;
8572;SDS011;4324;42.012;24.872;2023-04-25T08:13:19;8.57;;;7.77;;
8572;SDS011;4324;42.012;24.872;2023-04-25T08:15:47;7.47;;;6.87;;
8572;SDS011;4324;42.012;24.872;2023-04-25T08:18:14;10.43;;;6.87;;
8572;SDS011;4324;42.012;24.872;2023-04-25T08:20:41;9.20;;;8.50;;
8572;SDS011;4324;42.012;24.872;2023-04-25T08:23:08;8.37;;;7.63;;
8572;SDS011;4324;42.012;24.872;2023-04-25T08:25:35;8.50;;;7.80;;
8572;SDS011;4324;42.012;24.872;2023-04-25T08:28:02;8.40;;;7.60;;
8572;SDS011;4324;42.012;24.872;2023-04-25T08:30:29;8.37;;;7.57;;
8572;SDS011;4324;42.012;24.872;2023-04-25T08:32:57;9.07;;;7.40;;
8572;SDS011;4324;42.012;24.872;2023-04-25T08:35:24;7.87;;;7.17;;
8572;SDS011;4324;42.012;24.872;2023-04-25T08:37:51;7.93;;;7.13;;
8572;SDS011;4324;42.012;24.872;2023-04-25T08:40:18;8.20;;;7.50;;
8572;SDS011;4324;42.012;24.872;2023-04-25T08:42:51;7.30;;;6.70;;
8572;SDS011;4324;42.012;24.872;2023-04-25T08:45:20;8.23;;;7.50;;
8572;SDS011;4324;42.012;24.872;2023-04-25T08:47:47;8.83;;;8.03;;
8572;SDS011;4324;42.012;24.872;2023-04-25T08:50:19;8.83;;;8.03;;
8572;SDS011;4324;42.012;24.872;2023-04-25T08:52:47;9.73;;;8.87;;
8572;SDS011;4324;42.012;24.872;2023-04-25T08:55:17;12.17;;;11.07;;
8572;SDS011;4324;42.012;24.872;2023-04-25T08:57:45;11.43;;;10.33;;
8572;SDS011;4324;42.012;24.872;2023-04-25T09:00:12;10.13;;;8.77;;
8572;SDS011;4324;42.012;24.872;2023-04-25T09:02:40;9.23;;;8.33;;
8572;SDS011;4324;42.012;24.872;2023-04-25T09:05:09;9.67;;;8.77;;
8572;SDS011;4324;42.012;24.872;2023-04-25T09:07:37;11.30;;;10.20;;
8572;SDS011;4324;42.012;24.872;2023-04-25T09:10:04;12.33;;;10.93;;
8572;SDS011;4324;42.012;24.872;2023-04-25T09:12:32;16.20;;;14.80;;
8572;SDS011;4324;42.012;24.872;2023-04-25T09:15:03;10.80;;;9.83;;
8572;SDS011;4324;42.012;24.872;2023-04-25T09:17:31;9.70;;;8.70;;
8572;SDS011;4324;42.012;24.872;2023-04-25T09:20:05;9.10;;;8.07;;
8572;SDS011;4324;42.012;24.872;2023-04-25T09:22:33;10.07;;;9.07;;
8572;SDS011;4324;42.012;24.872;2023-04-25T09:25:03;8.90;;;8.10;;
8572;SDS011;4324;42.012;24.872;2023-04-25T09:27:34;8.97;;;8.17;;
8572;SDS011;4324;42.012;24.872;2023-04-25T09:30:01;11.73;;;10.63;;
8572;SDS011;4324;42.012;24.872;2023-04-25T09:32:28;11.07;;;10.07;;
8572;SDS011;4324;42.012;24.872;2023-04-25T09:34:56;13.40;;;9.70;;
8572;SDS011;4324;42.012;24.872;2023-04-25T09:37:23;9.80;;;9.00;;
8572;SDS011;4324;42.012;24.872;2023-04-25T09:39:53;12.60;;;11.50;;
8572;SDS011;4324;42.012;24.872;2023-04-25T09:42:23;12.73;;;11.53;;
8572;SDS011;4324;42.012;24.872;2023-04-25T09:44:51;10.53;;;9.63;;
8572;SDS011;4324;42.012;24.872;2023-04-25T09:47:20;9.03;;;8.23;;
8572;SDS011;4324;42.012;24.872;2023-04-25T09:49:48;9.53;;;8.80;;
8572;SDS011;4324;42.012;24.872;2023-04-25T09:52:17;9.10;;;8.30;;
8572;SDS011;4324;42.012;24.872;2023-04-25T09:54:45;9.33;;;8.43;;
8572;SDS011;4324;42.012;24.872;2023-04-25T09:57:13;8.83;;;8.13;;
8572;SDS011;4324;42.012;24.872;2023-04-25T09:59:46;8.43;;;7.63;;
8572;SDS011;4324;42.012;24.872;2023-04-25T10:02:14;8.87;;;8.07;;
8572;SDS011;4324;42.012;24.872;2023-04-25T10:04:44;10.83;;;9.73;;
8572;SDS011;4324;42.012;24.872;2023-04-25T10:07:16;10.30;;;9.43;;
8572;SDS011;4324;42.012;24.872;2023-04-25T10:09:46;10.37;;;9.40;;
8572;SDS011;4324;42.012;24.872;2023-04-25T10:12:14;12.03;;;10.83;;
8572;SDS011;4324;42.012;24.872;2023-04-25T10:14:42;10.13;;;9.30;;
8572;SDS011;4324;42.012;24.872;2023-04-25T10:17:11;9.43;;;8.53;;
8572;SDS011;4324;42.012;24.872;2023-04-25T10:19:37;6.80;;;6.20;;
8572;SDS011;4324;42.012;24.872;2023-04-25T10:22:07;5.80;;;5.20;;
8572;SDS011;4324;42.012;24.872;2023-04-25T10:24:35;6.50;;;5.03;;
8572;SDS011;4324;42.012;24.872;2023-04-25T10:27:02;7.03;;;6.40;;
8572;SDS011;4324;42.012;24.872;2023-04-25T10:29:30;7.67;;;6.63;;
8572;SDS011;4324;42.012;24.872;2023-04-25T10:31:57;7.93;;;7.23;;
8572;SDS011;4324;42.012;24.872;2023-04-25T10:34:37;10.57;;;9.57;;
8572;SDS011;4324;42.012;24.872;2023-04-25T10:37:11;12.23;;;11.23;;
8572;SDS011;4324;42.012;24.872;2023-04-25T10:39:39;12.03;;;10.93;;
8572;SDS011;4324;42.012;24.872;2023-04-25T10:42:07;10.23;;;9.27;;
8572;SDS011;4324;42.012;24.872;2023-04-25T10:44:34;9.70;;;8.80;;
8572;SDS011;4324;42.012;24.872;2023-04-25T10:47:05;8.40;;;7.20;;
8572;SDS011;4324;42.012;24.872;2023-04-25T10:49:36;6.63;;;6.03;;
8572;SDS011;4324;42.012;24.872;2023-04-25T10:52:11;5.73;;;5.23;;
8572;SDS011;4324;42.012;24.872;2023-04-25T10:54:42;4.50;;;4.17;;
8572;SDS011;4324;42.012;24.872;2023-04-25T10:57:28;4.57;;;4.27;;
8572;SDS011;4324;42.012;24.872;2023-04-25T10:59:58;5.00;;;4.60;;
8572;SDS011;4324;42.012;24.872;2023-04-25T11:02:26;5.57;;;5.17;;
8572;SDS011;4324;42.012;24.872;2023-04-25T11:04:55;3.90;;;3.50;;
8572;SDS011;4324;42.012;24.872;2023-04-25T11:07:25;6.57;;;5.97;;
8572;SDS011;4324;42.012;24.872;2023-04-25T11:10:01;8.77;;;7.97;;
8572;SDS011;4324;42.012;24.872;2023-04-25T11:12:29;6.00;;;5.60;;
8572;SDS011;4324;42.012;24.872;2023-04-25T11:14:58;6.67;;;6.07;;
8572;SDS011;4324;42.012;24.872;2023-04-25T11:17:26;6.90;;;6.30;;
8572;SDS011;4324;42.012;24.872;2023-04-25T11:19:53;9.20;;;8.37;;
8572;SDS011;4324;42.012;24.872;2023-04-25T11:22:22;8.30;;;7.47;;
8572;SDS011;4324;42.012;24.872;2023-04-25T11:24:49;8.57;;;6.60;;
8572;SDS011;4324;42.012;24.872;2023-04-25T11:27:16;6.83;;;6.07;;
8572;SDS011;4324;42.012;24.872;2023-04-25T11:29:43;7.13;;;5.70;;
8572;SDS011;4324;42.012;24.872;2023-04-25T11:32:13;7.77;;;5.67;;
8572;SDS011;4324;42.012;24.872;2023-04-25T11:34:42;5.37;;;4.80;;
8572;SDS011;4324;42.012;24.872;2023-04-25T11:37:11;6.40;;;5.40;;
8572;SDS011;4324;42.012;24.872;2023-04-25T11:39:43;5.00;;;4.33;;
8572;SDS011;4324;42.012;24.872;2023-04-25T11:42:12;6.00;;;5.27;;
8572;SDS011;4324;42.012;24.872;2023-04-25T11:44:39;7.33;;;5.90;;
8572;SDS011;4324;42.012;24.872;2023-04-25T11:47:06;6.47;;;5.87;;
8572;SDS011;4324;42.012;24.872;2023-04-25T11:49:33;10.60;;;9.60;;
8572;SDS011;4324;42.012;24.872;2023-04-25T11:52:01;9.50;;;8.50;;
8572;SDS011;4324;42.012;24.872;2023-04-25T11:54:29;6.77;;;5.33;;
8572;SDS011;4324;42.012;24.872;2023-04-25T11:56:57;5.57;;;4.90;;
8572;SDS011;4324;42.012;24.872;2023-04-25T11:59:24;4.77;;;4.43;;
8572;SDS011;4324;42.012;24.872;2023-04-25T12:01:52;5.27;;;4.43;;
8572;SDS011;4324;42.012;24.872;2023-04-25T12:04:21;6.37;;;4.73;;
8572;SDS011;4324;42.012;24.872;2023-04-25T12:06:49;5.27;;;4.77;;
8572;SDS011;4324;42.012;24.872;2023-04-25T12:09:18;5.00;;;4.40;;
8572;SDS011;4324;42.012;24.872;2023-04-25T12:11:47;5.00;;;4.07;;
8572;SDS011;4324;42.012;24.872;2023-04-25T12:14:23;3.73;;;3.47;;
8572;SDS011;4324;42.012;24.872;2023-04-25T12:16:52;4.23;;;3.93;;
8572;SDS011;4324;42.012;24.872;2023-04-25T12:19:22;4.67;;;4.27;;
8572;SDS011;4324;42.012;24.872;2023-04-25T12:21:49;6.23;;;5.73;;
8572;SDS011;4324;42.012;24.872;2023-04-25T12:24:17;7.07;;;6.47;;
8572;SDS011;4324;42.012;24.872;2023-04-25T12:26:51;5.23;;;3.53;;
8572;SDS011;4324;42.012;24.872;2023-04-25T12:29:19;3.73;;;3.30;;
8572;SDS011;4324;42.012;24.872;2023-04-25T12:31:50;3.80;;;3.50;;
8572;SDS011;4324;42.012;24.872;2023-04-25T12:34:18;3.90;;;3.20;;
8572;SDS011;4324;42.012;24.872;2023-04-25T12:36:46;7.23;;;5.03;;
8572;SDS011;4324;42.012;24.872;2023-04-25T12:39:16;4.30;;;3.90;;
8572;SDS011;4324;42.012;24.872;2023-04-25T12:41:45;8.97;;;6.53;;
8572;SDS011;4324;42.012;24.872;2023-04-25T12:44:12;8.10;;;7.30;;
8572;SDS011;4324;42.012;24.872;2023-04-25T12:46:39;5.93;;;5.27;;
8572;SDS011;4324;42.012;24.872;2023-04-25T12:49:08;4.30;;;3.90;;
8572;SDS011;4324;42.012;24.872;2023-04-25T12:51:35;4.77;;;3.40;;
8572;SDS011;4324;42.012;24.872;2023-04-25T12:54:03;3.33;;;3.13;;
8572;SDS011;4324;42.012;24.872;2023-04-25T12:56:31;3.27;;;3.00;;
8572;SDS011;4324;42.012;24.872;2023-04-25T12:58:58;3.60;;;3.27;;
8572;SDS011;4324;42.012;24.872;2023-04-25T13:01:25;5.50;;;5.00;;
8572;SDS011;4324;42.012;24.872;2023-04-25T13:03:52;9.50;;;8.50;;
8572;SDS011;4324;42.012;24.872;2023-04-25T13:06:21;4.10;;;3.77;;
8572;SDS011;4324;42.012;24.872;2023-04-25T13:08:48;3.83;;;2.93;;
8572;SDS011;4324;42.012;24.872;2023-04-25T13:11:15;6.50;;;3.10;;
8572;SDS011;4324;42.012;24.872;2023-04-25T13:13:43;7.73;;;4.60;;
8572;SDS011;4324;42.012;24.872;2023-04-25T13:16:10;3.77;;;3.33;;
8572;SDS011;4324;42.012;24.872;2023-04-25T13:18:39;3.57;;;3.10;;
8572;SDS011;4324;42.012;24.872;2023-04-25T13:21:06;3.37;;;3.07;;
8572;SDS011;4324;42.012;24.872;2023-04-25T13:23:37;6.50;;;5.67;;
8572;SDS011;4324;42.012;24.872;2023-04-25T13:26:04;6.57;;;5.87;;
8572;SDS011;4324;42.012;24.872;2023-04-25T13:28:31;16.00;;;14.60;;
8572;SDS011;4324;42.012;24.872;2023-04-25T13:30:58;6.20;;;4.23;;
8572;SDS011;4324;42.012;24.872;2023-04-25T13:33:24;5.60;;;3.67;;
8572;SDS011;4324;42.012;24.872;2023-04-25T13:35:52;3.80;;;3.17;;
8572;SDS011;4324;42.012;24.872;2023-04-25T13:38:21;3.40;;;2.77;;
8572;SDS011;4324;42.012;24.872;2023-04-25T13:40:50;4.20;;;3.80;;
8572;SDS011;4324;42.012;24.872;2023-04-25T13:43:18;3.10;;;2.77;;
8572;SDS011;4324;42.012;24.872;2023-04-25T13:45:46;3.70;;;2.83;;
8572;SDS011;4324;42.012;24.872;2023-04-25T13:48:13;3.80;;;3.23;;
8572;SDS011;4324;42.012;24.872;2023-04-25T13:50:40;7.43;;;4.40;;
8572;SDS011;4324;42.012;24.872;2023-04-25T13:53:07;6.27;;;3.93;;
8572;SDS011;4324;42.012;24.872;2023-04-25T13:55:35;10.33;;;6.40;;
8572;SDS011;4324;42.012;24.872;2023-04-25T13:58:04;13.17;;;7.13;;
8572;SDS011;4324;42.012;24.872;2023-04-25T14:00:33;10.13;;;7.00;;
8572;SDS011;4324;42.012;24.872;2023-04-25T14:03:03;10.33;;;9.07;;
8572;SDS011;4324;42.012;24.872;2023-04-25T14:05:32;8.13;;;6.70;;
8572;SDS011;4324;42.012;24.872;2023-04-25T14:08:03;9.60;;;8.60;;
8572;SDS011;4324;42.012;24.872;2023-04-25T14:10:31;8.03;;;6.73;;
8572;SDS011;4324;42.012;24.872;2023-04-25T14:12:58;10.63;;;9.53;;
8572;SDS011;4324;42.012;24.872;2023-04-25T14:15:27;10.60;;;9.50;;
8572;SDS011;4324;42.012;24.872;2023-04-25T14:17:54;13.23;;;10.40;;
8572;SDS011;4324;42.012;24.872;2023-04-25T14:20:21;9.90;;;8.00;;
8572;SDS011;4324;42.012;24.872;2023-04-25T14:22:49;13.10;;;11.57;;
8572;SDS011;4324;42.012;24.872;2023-04-25T14:25:17;8.33;;;7.60;;
8572;SDS011;4324;42.012;24.872;2023-04-25T14:27:44;9.87;;;8.87;;
8572;SDS011;4324;42.012;24.872;2023-04-25T14:30:14;5.50;;;5.07;;
8572;SDS011;4324;42.012;24.872;2023-04-25T14:32:43;7.17;;;6.40;;
8572;SDS011;4324;42.012;24.872;2023-04-25T14:35:10;7.63;;;5.87;;
8572;SDS011;4324;42.012;24.872;2023-04-25T14:37:37;6.90;;;6.30;;
8572;SDS011;4324;42.012;24.872;2023-04-25T14:40:05;11.80;;;10.70;;
8572;SDS011;4324;42.012;24.872;2023-04-25T14:42:34;5.97;;;5.43;;
8572;SDS011;4324;42.012;24.872;2023-04-25T14:45:01;6.43;;;5.83;;
8572;SDS011;4324;42.012;24.872;2023-04-25T14:47:28;6.13;;;5.23;;
8572;SDS011;4324;42.012;24.872;2023-04-25T14:49:57;5.77;;;5.37;;
8572;SDS011;4324;42.012;24.872;2023-04-25T14:52:23;6.50;;;5.97;;
8572;SDS011;4324;42.012;24.872;2023-04-25T14:54:50;5.60;;;5.10;;
8572;SDS011;4324;42.012;24.872;2023-04-25T14:57:17;5.53;;;5.03;;